Time;durP1;ratioP1;P1;durP2;ratioP2;P2;SDS_P1;SDS_P2;PMS_P1;PMS_P2;Temp;Humidity;BMP_temperature;BMP_pressure;BME280_temperature;BME280_humidity;BME280_pressure;Samples;Min_cycle;Max_cycle;Signal;HPM_P1;HPM_P2
2022/07/05 00:00:32;;;;;;;8.25;3.22;;;;;;;18.11;63.30;99359.59;5195823;28;20072;-72
2022/07/05 00:03:22;;;;;;;5.45;2.88;;;;;;;18.13;63.15;99363.78;5204161;28;20721;-72
2022/07/05 00:06:12;;;;;;;4.82;2.90;;;;;;;18.17;63.20;99367.75;5188992;28;20056;-72
2022/07/05 00:09:02;;;;;;;6.47;3.10;;;;;;;18.25;62.66;99367.69;5201846;28;20065;-72
2022/07/05 00:11:53;;;;;;;8.07;3.17;;;;;;;18.12;63.06;99364.78;5184350;28;20910;-72
2022/07/05 00:14:43;;;;;;;3.83;2.90;;;;;;;18.13;62.71;99366.47;5184380;28;20550;-72
2022/07/05 00:17:34;;;;;;;4.03;3.08;;;;;;;17.64;64.16;99345.41;5188675;28;20053;-72
2022/07/05 00:20:25;;;;;;;5.07;3.10;;;;;;;17.83;63.81;99358.34;5188124;28;20050;-72
2022/07/05 00:23:16;;;;;;;6.72;3.38;;;;;;;17.97;63.36;99359.38;5194556;28;20124;-72
2022/07/05 00:26:06;;;;;;;16.98;3.75;;;;;;;17.95;64.05;99357.94;5184461;28;20574;-71
2022/07/05 00:28:56;;;;;;;6.40;3.17;;;;;;;17.90;63.84;99360.31;5202565;28;20058;-72
2022/07/05 00:31:47;;;;;;;6.03;2.78;;;;;;;17.94;63.60;99361.59;5196583;28;20060;-72
2022/07/05 00:34:37;;;;;;;4.55;2.95;;;;;;;17.68;63.94;99353.94;5191311;28;20052;-70
2022/07/05 00:37:28;;;;;;;10.57;2.75;;;;;;;17.37;64.86;99355.69;5194391;28;20099;-71
2022/07/05 00:40:18;;;;;;;8.13;3.10;;;;;;;17.43;64.38;99366.72;5196152;28;20052;-70
2022/07/05 00:43:08;;;;;;;9.15;3.15;;;;;;;17.51;64.13;99366.63;5210486;28;20447;-71
2022/07/05 00:45:59;;;;;;;4.20;3.17;;;;;;;17.29;65.11;99357.59;5183909;28;20431;-71
2022/07/05 00:48:49;;;;;;;5.78;2.80;;;;;;;17.60;64.54;99370.94;5174143;28;20045;-70
2022/07/05 00:51:39;;;;;;;5.30;3.08;;;;;;;17.23;64.98;99374.38;5191091;28;20125;-71
2022/07/05 00:54:50;;;;;;;7.53;3.40;;;;;;;17.36;64.53;99367.41;5187993;28;20503;-71
2022/07/05 00:57:40;;;;;;;6.60;3.40;;;;;;;17.28;65.01;99372.00;5201277;28;20138;-71
2022/07/05 01:00:31;;;;;;;9.20;4.00;;;;;;;17.18;64.15;99366.03;5199619;28;20072;-70
2022/07/05 01:03:22;;;;;;;8.05;3.03;;;;;;;17.21;63.95;99385.25;5182869;28;20065;-71
2022/07/05 01:06:13;;;;;;;3.35;3.00;;;;;;;17.01;65.09;99384.03;5183659;28;20053;-70
2022/07/05 01:09:04;;;;;;;3.53;2.95;;;;;;;17.09;64.54;99384.84;5181279;28;20097;-71
2022/07/05 01:11:55;;;;;;;7.35;3.08;;;;;;;17.01;64.57;99370.66;5203174;28;20426;-71
2022/07/05 01:14:45;;;;;;;10.95;3.20;;;;;;;17.09;64.30;99387.53;5168207;28;20053;-71
2022/07/05 01:17:37;;;;;;;6.35;3.38;;;;;;;17.13;64.87;99385.31;5210255;28;20077;-71
2022/07/05 01:20:27;;;;;;;5.80;3.30;;;;;;;17.38;64.33;99389.53;5184655;28;20691;-71
2022/07/05 01:23:19;;;;;;;5.65;3.22;;;;;;;17.22;64.69;99388.78;5202105;28;20412;-70
2022/07/05 01:26:09;;;;;;;5.60;3.38;;;;;;;16.93;65.61;99378.75;5187724;28;20112;-70
2022/07/05 01:29:00;;;;;;;5.57;3.70;;;;;;;16.98;66.09;99392.44;5174788;28;20056;-70
2022/07/05 01:31:50;;;;;;;3.22;2.90;;;;;;;17.16;64.58;99387.66;5198864;28;20949;-71
2022/07/05 01:34:41;;;;;;;4.13;3.60;;;;;;;16.69;67.19;99391.22;5182286;28;20103;-70
2022/07/05 01:37:32;;;;;;;5.20;3.28;;;;;;;16.85;66.21;99395.66;5192493;28;20053;-71
2022/07/05 01:40:22;;;;;;;3.90;3.30;;;;;;;16.86;65.99;99398.19;5202568;28;20134;-71
2022/07/05 01:43:13;;;;;;;5.22;3.17;;;;;;;17.06;65.28;99395.09;5168846;28;20101;-71
2022/07/05 01:46:08;;;;;;;5.88;3.15;;;;;;;16.90;65.11;99394.16;5192761;28;20053;-71
2022/07/05 01:49:03;;;;;;;8.05;3.63;;;;;;;16.77;65.94;99382.34;5181761;28;20072;-70
2022/07/05 01:51:57;;;;;;;3.80;3.22;;;;;;;16.68;65.68;99397.56;5193849;28;20057;-71
2022/07/05 01:54:47;;;;;;;5.53;3.70;;;;;;;16.46;66.38;99399.16;5181875;28;20523;-70
2022/07/05 01:57:38;;;;;;;6.88;3.20;;;;;;;16.60;66.04;99390.41;5209276;28;20239;-70
2022/07/05 02:00:29;;;;;;;8.10;3.60;;;;;;;16.48;66.17;99398.97;5193917;28;20128;-71
2022/07/05 02:03:20;;;;;;;4.47;3.30;;;;;;;16.61;65.90;99389.38;5182712;28;20057;-70
2022/07/05 02:06:33;;;;;;;11.65;3.47;;;;;;;16.65;66.14;99392.53;5168137;28;20143;-71
2022/07/05 02:09:24;;;;;;;8.88;4.18;;;;;;;16.61;66.06;99377.84;5188315;28;20064;-71
2022/07/05 02:12:15;;;;;;;6.97;3.50;;;;;;;16.54;65.83;99379.53;5188159;28;20747;-71
2022/07/05 02:15:06;;;;;;;5.90;3.45;;;;;;;16.56;65.79;99383.72;5167158;28;20092;-70
2022/07/05 02:17:56;;;;;;;4.28;3.50;;;;;;;16.37;66.12;99368.06;5208874;28;20061;-70
2022/07/05 02:20:47;;;;;;;7.40;3.40;;;;;;;16.36;66.22;99387.81;5183797;28;20061;-71
2022/07/05 02:23:37;;;;;;;7.68;3.80;;;;;;;16.40;66.10;99375.75;5191347;28;20054;-71
2022/07/05 02:26:30;;;;;;;7.75;3.40;;;;;;;16.51;66.00;99369.19;5188967;28;20106;-71
2022/07/05 02:29:20;;;;;;;7.70;3.72;;;;;;;16.26;66.43;99377.28;5176364;28;20049;-71
2022/07/05 02:32:11;;;;;;;6.28;3.53;;;;;;;16.05;67.08;99376.97;5200971;28;20053;-70
2022/07/05 02:35:03;;;;;;;6.57;3.50;;;;;;;16.09;66.97;99381.84;5165955;28;20046;-71
2022/07/05 02:37:53;;;;;;;6.18;3.10;;;;;;;15.91;65.94;99379.34;5209205;28;20060;-71
2022/07/05 02:40:46;;;;;;;6.07;3.15;;;;;;;15.88;67.34;99378.84;5181218;28;20127;-71
2022/07/05 02:43:39;;;;;;;7.47;3.97;;;;;;;16.14;66.90;99379.47;5209761;28;20053;-72
2022/07/05 02:46:30;;;;;;;9.55;3.42;;;;;;;16.18;66.61;99394.16;5197228;28;20049;-73
2022/07/05 02:49:24;;;;;;;8.63;3.85;;;;;;;16.06;66.02;99395.56;5181110;28;20133;-73
2022/07/05 02:52:16;;;;;;;5.35;3.58;;;;;;;16.17;66.36;99389.84;5208762;28;20068;-73
2022/07/05 02:55:06;;;;;;;6.55;3.47;;;;;;;16.27;66.14;99394.19;5160977;28;20053;-73
2022/07/05 02:57:57;;;;;;;8.27;3.58;;;;;;;16.31;66.06;99407.03;5184679;28;20052;-73
2022/07/05 03:00:51;;;;;;;7.28;3.58;;;;;;;16.10;66.13;99399.56;5200885;28;20061;-73
2022/07/05 03:03:43;;;;;;;4.47;3.25;;;;;;;15.93;66.88;99398.72;5179925;28;20514;-72
2022/07/05 03:06:35;;;;;;;6.45;3.70;;;;;;;15.87;66.41;99386.03;5184846;28;20057;-72
2022/07/05 03:09:26;;;;;;;10.00;4.47;;;;;;;15.71;67.12;99394.06;5174046;28;20605;-73
2022/07/05 03:12:18;;;;;;;9.65;3.78;;;;;;;15.93;66.34;99396.06;5174123;28;20069;-72
2022/07/05 03:15:10;;;;;;;7.47;4.50;;;;;;;15.81;67.08;99405.41;5165449;28;20046;-72
2022/07/05 03:18:00;;;;;;;8.73;3.83;;;;;;;15.46;66.98;99383.34;5191822;28;20571;-73
2022/07/05 03:20:54;;;;;;;7.35;4.03;;;;;;;15.38;68.13;99404.69;5187061;28;20053;-73
2022/07/05 03:23:46;;;;;;;7.55;3.72;;;;;;;15.63;67.74;99402.03;5204594;28;20644;-72
2022/07/05 03:26:37;;;;;;;7.65;3.83;;;;;;;15.67;67.54;99403.41;5188770;28;20140;-72
2022/07/05 03:29:27;;;;;;;9.50;4.03;;;;;;;15.58;66.77;99409.72;5198386;28;20100;-73
2022/07/05 03:32:17;;;;;;;12.65;4.28;;;;;;;15.57;67.65;99413.41;5211628;28;20057;-73
2022/07/05 03:35:09;;;;;;;5.57;4.13;;;;;;;15.42;68.27;99411.38;5164194;28;20679;-73
2022/07/05 03:37:59;;;;;;;8.07;4.57;;;;;;;15.40;67.89;99413.38;5185589;28;20067;-73
2022/07/05 03:40:50;;;;;;;10.38;4.60;;;;;;;15.49;67.69;99420.38;5186499;28;20131;-73
2022/07/05 03:43:41;;;;;;;10.48;5.93;;;;;;;15.69;68.24;99420.09;5184538;28;20771;-73
2022/07/05 03:46:32;;;;;;;7.15;4.35;;;;;;;15.76;67.93;99417.59;5199743;28;20067;-73
2022/07/05 03:49:22;;;;;;;10.82;5.18;;;;;;;15.66;67.93;99431.09;5188777;28;20060;-72
2022/07/05 03:52:12;;;;;;;8.98;4.88;;;;;;;15.68;68.08;99437.16;5211942;28;20056;-73
2022/07/05 03:55:05;;;;;;;6.80;4.22;;;;;;;15.68;68.31;99447.84;5184540;28;20046;-72
2022/07/05 03:57:55;;;;;;;8.00;4.45;;;;;;;15.48;68.32;99442.78;5194582;28;20125;-73
2022/07/05 04:00:46;;;;;;;10.82;4.47;;;;;;;15.56;67.81;99449.97;5181529;28;20061;-73
2022/07/05 04:03:41;;;;;;;10.93;4.30;;;;;;;15.59;68.17;99438.13;5198784;28;20115;-73
2022/07/05 04:06:34;;;;;;;7.32;4.32;;;;;;;15.65;68.43;99443.63;5206823;28;20073;-73
2022/07/05 04:09:26;;;;;;;11.95;4.75;;;;;;;15.60;68.14;99451.31;5181202;28;20061;-72
2022/07/05 04:12:17;;;;;;;7.10;3.95;;;;;;;15.73;68.28;99456.22;5182104;28;20107;-72
2022/07/05 04:15:10;;;;;;;12.13;4.50;;;;;;;15.65;67.29;99458.84;5179878;28;20080;-73
2022/07/05 04:18:01;;;;;;;10.63;3.58;;;;;;;15.61;66.43;99468.19;5163877;28;20071;-72
2022/07/05 04:20:56;;;;;;;4.85;3.55;;;;;;;15.49;68.14;99444.44;5168736;28;20507;-72
2022/07/05 04:23:47;;;;;;;9.15;4.68;;;;;;;15.73;67.57;99461.56;5199212;28;20135;-72
2022/07/05 04:26:39;;;;;;;7.13;4.40;;;;;;;15.84;68.80;99461.25;5193370;28;20060;-72
2022/07/05 04:29:30;;;;;;;7.15;4.03;;;;;;;15.84;67.31;99466.59;5186770;28;20076;-73
2022/07/05 04:32:20;;;;;;;8.45;4.60;;;;;;;15.85;68.60;99467.41;5180793;28;20326;-73
2022/07/05 04:35:12;;;;;;;10.27;4.85;;;;;;;15.77;69.86;99473.59;5179521;28;20045;-70
2022/07/05 04:38:03;;;;;;;11.98;5.55;;;;;;;16.01;69.90;99472.78;5198734;28;20492;-70
2022/07/05 04:40:54;;;;;;;7.85;5.18;;;;;;;16.14;69.26;99473.09;5182592;28;20554;-71
2022/07/05 04:43:44;;;;;;;10.90;4.82;;;;;;;16.14;68.13;99472.28;5201992;28;20061;-71
2022/07/05 04:46:36;;;;;;;7.30;4.95;;;;;;;16.15;67.58;99477.44;5191261;28;20064;-72
2022/07/05 04:49:27;;;;;;;10.68;4.82;;;;;;;16.08;69.61;99470.28;5198310;28;20057;-71
2022/07/05 04:52:17;;;;;;;10.95;5.75;;;;;;;16.06;70.20;99477.59;5169241;28;20060;-72
2022/07/05 04:55:08;;;;;;;15.30;5.43;;;;;;;16.39;69.05;99473.94;5183989;28;20424;-72
2022/07/05 04:57:58;;;;;;;6.90;5.07;;;;;;;16.55;68.30;99488.28;5200358;28;20046;-72
2022/07/05 05:00:49;;;;;;;10.82;5.05;;;;;;;16.43;68.28;99472.59;5182872;28;20050;-74
2022/07/05 05:03:39;;;;;;;7.13;5.00;;;;;;;16.60;68.21;99484.09;5180257;28;20108;-72
2022/07/05 05:06:30;;;;;;;13.02;5.15;;;;;;;16.56;68.40;99484.63;5190682;28;20067;-72
2022/07/05 05:09:20;;;;;;;8.38;4.72;;;;;;;16.69;67.39;99484.91;5182813;28;20144;-73
2022/07/05 05:12:10;;;;;;;8.18;4.68;;;;;;;16.64;67.43;99471.19;5195940;28;20059;-74
2022/07/05 05:15:01;;;;;;;9.55;5.80;;;;;;;16.76;66.63;99474.41;5195676;28;20052;-75
2022/07/05 05:17:51;;;;;;;9.75;5.07;;;;;;;16.86;68.00;99469.66;5188821;28;20064;-74
2022/07/05 05:20:42;;;;;;;9.63;5.68;;;;;;;16.98;67.22;99478.16;5183393;28;20085;-74
2022/07/05 05:23:32;;;;;;;8.68;5.15;;;;;;;17.01;67.90;99470.59;5182688;28;20052;-73
2022/07/05 05:26:22;;;;;;;9.20;5.55;;;;;;;17.05;66.99;99479.13;5183303;28;20199;-74
2022/07/05 05:29:13;;;;;;;8.20;5.45;;;;;;;17.19;66.49;99483.78;5180571;28;20053;-73
2022/07/05 05:32:03;;;;;;;6.88;5.20;;;;;;;17.32;66.89;99481.38;5182449;28;20050;-73
2022/07/05 05:34:53;;;;;;;7.95;4.63;;;;;;;17.53;65.69;99471.88;5181903;28;20111;-74
2022/07/05 05:37:48;;;;;;;8.15;5.03;;;;;;;17.57;65.93;99483.91;5181499;28;20543;-73
2022/07/05 05:40:38;;;;;;;7.95;5.18;;;;;;;17.67;65.64;99484.50;5182572;28;20072;-74
2022/07/05 05:43:28;;;;;;;8.43;5.60;;;;;;;17.78;65.70;99476.09;5182376;28;20650;-73
2022/07/05 05:46:18;;;;;;;8.38;5.25;;;;;;;17.87;64.63;99489.44;5182981;28;20518;-73
2022/07/05 05:49:09;;;;;;;8.32;5.40;;;;;;;17.98;65.32;99489.00;5183099;28;20057;-73
2022/07/05 05:51:59;;;;;;;13.80;4.75;;;;;;;18.09;64.70;99475.19;5181499;28;20061;-73
2022/07/05 05:54:49;;;;;;;10.07;4.85;;;;;;;18.26;64.73;99494.66;5182973;28;20184;-74
2022/07/05 05:57:40;;;;;;;6.43;4.82;;;;;;;18.36;64.01;99483.66;5181465;28;20050;-74
2022/07/05 06:00:30;;;;;;;7.82;4.40;;;;;;;18.27;63.29;99464.13;5182350;28;20057;-74
2022/07/05 06:03:22;;;;;;;9.68;4.75;;;;;;;18.67;62.17;99488.91;5182388;28;20141;-73
2022/07/05 06:06:12;;;;;;;13.10;4.65;;;;;;;18.58;61.85;99493.53;5182554;28;20084;-73
2022/07/05 06:09:03;;;;;;;8.20;3.72;;;;;;;18.68;61.04;99496.78;5182695;28;20094;-74
2022/07/05 06:11:53;;;;;;;5.07;3.95;;;;;;;18.88;61.43;99498.97;5181969;28;20054;-73
2022/07/05 06:14:43;;;;;;;5.75;3.60;;;;;;;18.87;60.73;99491.91;5182646;28;20524;-74
2022/07/05 06:17:37;;;;;;;4.72;3.47;;;;;;;19.08;60.43;99502.75;5182529;28;20084;-74
2022/07/05 06:20:30;;;;;;;5.20;3.03;;;;;;;18.97;59.54;99500.50;5182619;28;20061;-73
2022/07/05 06:23:20;;;;;;;7.57;3.40;;;;;;;19.18;59.29;99495.22;5181848;28;20128;-73
2022/07/05 06:26:10;;;;;;;7.07;2.83;;;;;;;19.32;57.85;99495.41;5208868;28;20120;-74
2022/07/05 06:29:00;;;;;;;6.53;3.20;;;;;;;19.47;57.55;99509.66;5182052;28;20079;-73
2022/07/05 06:31:51;;;;;;;9.60;2.90;;;;;;;19.49;57.06;99502.22;5181822;28;20151;-74
2022/07/05 06:34:41;;;;;;;5.93;2.35;;;;;;;19.73;55.95;99505.63;5182326;28;20120;-73
2022/07/05 06:37:52;;;;;;;3.55;2.38;;;;;;;19.70;56.35;99513.06;5182427;28;20061;-74
2022/07/05 06:40:43;;;;;;;3.17;2.05;;;;;;;19.94;55.52;99513.72;5181141;28;20515;-73
2022/07/05 06:43:34;;;;;;;2.97;2.03;;;;;;;20.19;53.84;99506.09;5180856;28;20053;-74
2022/07/05 06:46:26;;;;;;;4.40;1.90;;;;;;;20.33;54.07;99521.34;5181298;28;20065;-74
2022/07/05 06:49:17;;;;;;;3.92;2.22;;;;;;;20.42;54.84;99527.41;5182229;28;20107;-74
2022/07/05 06:52:07;;;;;;;3.70;2.10;;;;;;;20.51;53.33;99518.19;5181527;28;20050;-74
2022/07/05 06:55:01;;;;;;;4.32;2.10;;;;;;;19.77;55.49;99514.97;5182453;28;20599;-73
2022/07/05 06:57:59;;;;;;;6.93;2.30;;;;;;;21.40;51.13;99520.22;5186364;28;20470;-74
2022/07/05 07:01:05;;;;;;;4.03;1.83;;;;;;;22.62;47.16;99516.53;5186115;28;20137;-73
2022/07/05 07:04:14;;;;;;;5.70;1.92;;;;;;;23.81;45.79;99515.38;5186443;28;20104;-73
2022/07/05 07:10:19;;;;;;;2.17;1.70;;;;;;;25.36;43.18;99520.06;5186190;28;20516;-73
2022/07/05 07:13:17;;;;;;;5.60;1.70;;;;;;;24.48;41.95;99531.19;5184753;28;20586;-73
2022/07/05 07:16:07;;;;;;;3.22;1.80;;;;;;;24.23;45.42;99534.66;5185432;28;20574;-73
2022/07/05 07:18:57;;;;;;;1.83;1.33;;;;;;;25.65;42.81;99532.03;5185911;28;20060;-73
2022/07/05 07:22:04;;;;;;;4.40;1.27;;;;;;;25.24;42.28;99530.88;5185107;28;20451;-73
2022/07/05 07:24:54;;;;;;;10.57;1.90;;;;;;;25.62;40.62;99531.66;5185837;28;20404;-73
2022/07/05 07:27:49;;;;;;;3.92;1.55;;;;;;;26.37;40.67;99532.06;5185145;28;20060;-73
2022/07/05 07:30:39;;;;;;;3.60;1.35;;;;;;;26.59;38.45;99526.94;5183126;28;20392;-73
2022/07/05 07:33:29;;;;;;;2.78;1.30;;;;;;;27.21;38.10;99533.78;5184982;28;20058;-73
2022/07/05 07:36:34;;;;;;;6.53;1.17;;;;;;;27.76;36.26;99519.69;5184574;28;20050;-73
2022/07/05 07:39:26;;;;;;;4.00;1.05;;;;;;;27.47;36.25;99524.28;5185145;28;20089;-73
2022/07/05 07:42:15;;;;;;;6.28;1.30;;;;;;;27.67;35.28;99534.75;5184611;28;20042;-73
2022/07/05 07:45:06;;;;;;;3.70;1.42;;;;;;;27.49;35.70;99531.13;5184966;28;20507;-73
2022/07/05 07:47:56;;;;;;;2.03;0.90;;;;;;;28.90;33.60;99529.53;5185054;28;20574;-73
2022/07/05 07:50:46;;;;;;;1.90;1.08;;;;;;;28.54;34.32;99518.94;5185256;28;20631;-73
2022/07/05 07:53:37;;;;;;;3.38;1.08;;;;;;;28.72;33.97;99534.19;5184924;28;20077;-72
2022/07/05 07:56:27;;;;;;;3.75;1.15;;;;;;;27.49;35.59;99531.13;5184663;28;20129;-73
2022/07/05 07:59:18;;;;;;;1.63;0.95;;;;;;;27.25;36.33;99537.69;5185014;28;20053;-72
2022/07/05 08:02:08;;;;;;;1.92;1.02;;;;;;;27.60;37.03;99538.44;5184328;28;20046;-72
2022/07/05 08:04:59;;;;;;;3.70;1.30;;;;;;;27.39;36.32;99530.94;5184719;28;20069;-71
2022/07/05 08:07:49;;;;;;;2.33;1.10;;;;;;;27.78;35.33;99537.47;5182754;28;20053;-71
2022/07/05 08:10:39;;;;;;;3.95;1.30;;;;;;;28.22;35.92;99528.72;5184564;28;20049;-71
2022/07/05 08:13:30;;;;;;;3.10;1.30;;;;;;;28.39;35.36;99534.19;5184122;28;20054;-72
2022/07/05 08:16:20;;;;;;;1.67;0.98;;;;;;;29.39;34.05;99533.25;5184390;28;20073;-71
2022/07/05 08:22:20;;;;;;;3.72;1.48;;;;;;;28.62;34.64;99520.41;5182991;28;20207;-71
2022/07/05 08:25:13;;;;;;;2.13;1.15;;;;;;;29.11;34.92;99525.25;5184446;28;20111;-72
2022/07/05 08:28:04;;;;;;;3.92;1.30;;;;;;;28.97;34.95;99514.66;5184378;28;20057;-71
2022/07/05 08:30:54;;;;;;;2.10;1.23;;;;;;;29.27;32.92;99527.06;5183665;28;20061;-71
2022/07/05 08:33:44;;;;;;;9.25;1.50;;;;;;;30.10;35.04;99522.31;5184109;28;20125;-72
2022/07/05 08:36:34;;;;;;;2.60;1.40;;;;;;;30.47;33.36;99526.22;5183989;28;20049;-71
2022/07/05 08:39:25;;;;;;;0.98;0.90;;;;;;;30.31;30.19;99528.81;5184194;28;20436;-72
2022/07/05 08:42:15;;;;;;;2.08;0.90;;;;;;;30.39;35.72;99524.78;5183906;28;20056;-73
2022/07/05 08:45:08;;;;;;;1.83;1.00;;;;;;;30.08;31.24;99519.00;5184348;28;20144;-71
2022/07/05 08:48:00;;;;;;;3.17;1.25;;;;;;;31.04;32.08;99526.34;5184263;28;20060;-72
2022/07/05 08:50:51;;;;;;;1.20;1.00;;;;;;;31.62;30.80;99518.13;5182796;28;20053;-72
2022/07/05 08:53:48;;;;;;;1.27;1.05;;;;;;;30.20;33.01;99518.88;5183569;28;20064;-72
2022/07/05 08:56:42;;;;;;;3.53;0.90;;;;;;;31.12;33.58;99519.53;5183643;28;20087;-72
2022/07/05 08:59:52;;;;;;;1.60;1.00;;;;;;;31.19;29.38;99514.66;5183764;28;20058;-72
2022/07/05 09:02:43;;;;;;;2.08;0.90;;;;;;;30.93;31.61;99521.06;5182663;28;20062;-72
2022/07/05 09:05:43;;;;;;;2.13;1.00;;;;;;;31.15;31.80;99519.00;5183666;28;20053;-71
2022/07/05 09:08:39;;;;;;;1.10;0.90;;;;;;;31.41;31.42;99517.25;5183417;28;20046;-71
2022/07/05 09:11:41;;;;;;;2.53;1.00;;;;;;;30.89;30.99;99518.91;5183136;28;20081;-72
2022/07/05 09:14:46;;;;;;;3.50;0.88;;;;;;;30.47;33.11;99513.38;5183157;28;20061;-73
2022/07/05 09:17:45;;;;;;;1.60;1.05;;;;;;;31.37;35.10;99507.91;5183198;28;20058;-72
2022/07/05 09:20:35;;;;;;;4.93;0.90;;;;;;;31.30;33.84;99513.63;5183766;28;20057;-73
2022/07/05 09:23:25;;;;;;;2.03;1.15;;;;;;;31.58;33.75;99511.53;5181959;28;20512;-73
2022/07/05 09:26:18;;;;;;;2.92;0.85;;;;;;;30.73;31.54;99514.38;5183330;28;20064;-73
2022/07/05 09:29:20;;;;;;;4.95;1.13;;;;;;;31.17;31.95;99514.09;5182717;28;20077;-73
2022/07/05 09:32:31;;;;;;;1.77;0.80;;;;;;;31.68;32.33;99514.31;5162457;28;20517;-72
2022/07/05 09:35:21;;;;;;;1.45;0.73;;;;;;;31.88;32.93;99513.56;5162718;28;20501;-73
2022/07/05 09:38:22;;;;;;;3.70;0.90;;;;;;;31.23;31.46;99514.97;5175960;28;20046;-73
2022/07/05 09:41:12;;;;;;;3.72;0.80;;;;;;;32.30;29.41;99518.00;5162660;28;20065;-73
2022/07/05 09:44:03;;;;;;;1.98;0.80;;;;;;;31.12;31.31;99520.38;5164114;28;20555;-73
2022/07/05 09:47:07;;;;;;;2.63;0.80;;;;;;;31.78;32.93;99516.25;5181809;28;20057;-72
2022/07/05 09:50:06;;;;;;;2.17;0.70;;;;;;;31.62;31.00;99518.13;5182704;28;20049;-72
2022/07/05 09:53:00;;;;;;;2.72;1.13;;;;;;;31.72;29.54;99520.94;5182379;28;20077;-71
2022/07/05 09:56:01;;;;;;;4.30;1.38;;;;;;;31.20;30.92;99502.63;5183384;28;20496;-73
2022/07/05 09:58:52;;;;;;;2.97;1.00;;;;;;;31.38;31.42;99514.22;5182644;28;20378;-72
2022/07/05 10:01:43;;;;;;;1.90;0.70;;;;;;;30.48;29.19;99517.75;5182026;28;20120;-73
2022/07/05 10:04:33;;;;;;;0.70;0.70;;;;;;;29.57;31.80;99513.00;5182930;28;20411;-72
2022/07/05 10:07:33;;;;;;;19.40;9.20;;;;;;;32.30;30.27;99515.28;5182671;28;20432;-73
2022/07/05 10:10:29;;;;;;;2.22;0.60;;;;;;;32.99;27.88;99511.13;5182545;28;20093;-73
2022/07/05 10:13:19;;;;;;;6.43;0.50;;;;;;;32.57;23.86;99509.53;5181949;28;20041;-72
2022/07/05 10:16:10;;;;;;;4.00;0.90;;;;;;;32.43;29.47;99505.69;5182353;28;20046;-72
2022/07/05 10:19:00;;;;;;;2.55;0.90;;;;;;;30.45;31.90;99510.06;5182396;28;20430;-73
2022/07/05 10:21:51;;;;;;;3.05;1.00;;;;;;;29.46;31.67;99508.47;5182062;28;20428;-72
2022/07/05 10:25:01;;;;;;;4.22;1.10;;;;;;;28.89;30.89;99515.06;5182679;28;20140;-72
2022/07/05 10:27:53;;;;;;;1.85;0.75;;;;;;;29.49;30.99;99494.31;5182389;28;20496;-72
2022/07/05 10:30:45;;;;;;;1.55;0.80;;;;;;;28.76;31.48;99518.16;5181648;28;20054;-72
2022/07/05 10:33:36;;;;;;;2.40;0.85;;;;;;;29.67;32.85;99513.13;5181257;28;20050;-72
2022/07/05 10:36:26;;;;;;;1.02;0.52;;;;;;;28.05;30.84;99506.88;5182748;28;20180;-72
2022/07/05 10:39:17;;;;;;;0.77;0.70;;;;;;;28.07;31.48;99497.38;5182643;28;20159;-72
2022/07/05 10:42:07;;;;;;;1.95;0.70;;;;;;;29.67;31.42;99509.59;5181693;28;20052;-75
2022/07/05 10:44:57;;;;;;;1.60;0.65;;;;;;;28.45;31.04;99514.13;5182754;28;20058;-72
2022/07/05 10:48:12;;;;;;;2.30;0.82;;;;;;;29.10;31.29;99520.84;5182128;28;20066;-72
2022/07/05 10:51:14;;;;;;;1.95;0.73;;;;;;;29.01;31.16;99507.63;5181976;28;20058;-72
2022/07/05 10:54:04;;;;;;;1.52;0.70;;;;;;;28.79;30.68;99495.81;5181889;28;20397;-72
2022/07/05 10:57:23;;;;;;;4.53;0.80;;;;;;;29.61;32.69;99508.69;5181666;28;20128;-72
2022/07/05 11:00:13;;;;;;;4.95;1.23;;;;;;;29.92;29.14;99509.00;5180723;28;20420;-73
2022/07/05 11:03:26;;;;;;;1.02;0.63;;;;;;;29.92;29.96;99506.28;5181658;28;20499;-72
2022/07/05 11:06:27;;;;;;;1.35;0.52;;;;;;;30.48;30.48;99505.97;5181866;28;20196;-72
2022/07/05 11:09:19;;;;;;;4.55;0.80;;;;;;;29.03;29.58;99507.38;5182333;28;20057;-73
2022/07/05 11:12:12;;;;;;;4.63;0.80;;;;;;;28.70;33.32;99516.41;5180463;28;20054;-73
2022/07/05 11:15:19;;;;;;;1.05;0.90;;;;;;;29.10;29.73;99499.00;5181772;28;20054;-73
2022/07/05 11:18:16;;;;;;;1.48;0.55;;;;;;;28.72;30.08;99503.38;5180979;28;20114;-73
2022/07/05 11:21:37;;;;;;;1.42;0.90;;;;;;;29.88;28.44;99497.75;5181638;28;20336;-73
2022/07/05 11:24:33;;;;;;;2.28;1.00;;;;;;;29.58;28.67;99514.63;5182005;28;20065;-73
2022/07/05 11:27:23;;;;;;;1.27;0.60;;;;;;;29.08;31.15;99503.91;5181266;28;20053;-73
2022/07/05 11:30:23;;;;;;;2.65;0.85;;;;;;;28.04;31.00;99506.03;5181382;28;20152;-73
2022/07/05 11:33:42;;;;;;;1.10;0.70;;;;;;;28.07;31.42;99500.09;5181450;28;20516;-72
2022/07/05 11:36:33;;;;;;;1.30;0.80;;;;;;;27.99;31.56;99502.41;5180650;28;20053;-72
2022/07/05 11:39:24;;;;;;;1.77;0.80;;;;;;;29.42;29.15;99502.69;5180637;28;20061;-73
2022/07/05 11:42:22;;;;;;;1.95;0.70;;;;;;;30.32;30.39;99502.28;5184305;28;20056;-72
2022/07/05 11:45:12;;;;;;;1.75;0.88;;;;;;;29.16;30.75;99501.53;5184291;28;20526;-72
2022/07/05 11:48:04;;;;;;;4.68;0.88;;;;;;;28.62;31.53;99501.31;5185260;28;20076;-72
2022/07/05 11:50:55;;;;;;;4.28;1.10;;;;;;;29.70;33.58;99496.22;5185556;28;20172;-72
2022/07/05 11:53:46;;;;;;;1.80;0.75;;;;;;;30.12;28.96;99481.84;5184809;28;20057;-72
2022/07/05 11:56:58;;;;;;;1.27;0.70;;;;;;;30.08;30.53;99485.38;5184604;28;20077;-72
2022/07/05 11:59:49;;;;;;;0.95;0.73;;;;;;;29.62;28.87;99487.66;5185054;28;20053;-72
2022/07/05 12:02:43;;;;;;;2.80;0.85;;;;;;;29.43;30.38;99471.56;5184040;28;20050;-72
2022/07/05 12:05:34;;;;;;;3.00;0.70;;;;;;;30.31;31.87;99476.84;5184636;28;20104;-72
2022/07/05 12:08:31;;;;;;;3.47;0.70;;;;;;;30.02;29.56;99470.81;5184813;28;20056;-72
2022/07/05 12:14:31;;;;;;;1.85;0.75;;;;;;;29.89;30.49;99474.81;5185028;28;20084;-72
2022/07/05 12:17:21;;;;;;;1.95;0.88;;;;;;;30.15;28.07;99473.13;5183583;28;20049;-72
2022/07/05 12:20:21;;;;;;;1.50;0.70;;;;;;;30.46;28.13;99472.56;5183260;28;20419;-72
2022/07/05 12:23:11;;;;;;;3.08;0.70;;;;;;;29.91;27.76;99469.91;5183974;28;20148;-72
2022/07/05 12:26:06;;;;;;;5.25;0.65;;;;;;;29.25;28.51;99466.44;5184034;28;20412;-72
2022/07/05 12:28:56;;;;;;;2.92;0.80;;;;;;;29.32;32.15;99467.06;5184495;28;20191;-72
2022/07/05 12:32:01;;;;;;;3.53;0.85;;;;;;;29.60;29.82;99463.28;5184008;28;20140;-72
2022/07/05 12:34:52;;;;;;;4.43;0.70;;;;;;;29.74;29.86;99458.28;5183629;28;20143;-72
2022/07/05 12:37:43;;;;;;;1.33;0.63;;;;;;;29.94;30.72;99466.66;5183918;28;20148;-72
2022/07/05 12:40:36;;;;;;;1.20;0.73;;;;;;;28.48;31.23;99465.38;5184598;28;20072;-72
2022/07/05 12:43:27;;;;;;;0.87;0.63;;;;;;;29.00;30.73;99465.03;5169687;28;20159;-72
2022/07/05 12:46:17;;;;;;;2.80;0.90;;;;;;;28.81;27.43;99450.00;5184103;28;20404;-72
2022/07/05 12:49:08;;;;;;;3.30;0.75;;;;;;;28.47;30.01;99466.41;5184194;28;20060;-72
2022/07/05 12:52:04;;;;;;;1.13;0.60;;;;;;;28.74;29.16;99458.38;5182815;28;20057;-72
2022/07/05 12:58:19;;;;;;;3.22;0.77;;;;;;;28.63;29.70;99453.00;5183735;28;20064;-72
2022/07/05 13:01:22;;;;;;;2.58;0.90;;;;;;;29.07;30.52;99447.63;5183188;28;20068;-72
2022/07/05 13:04:17;;;;;;;2.17;0.90;;;;;;;29.36;30.93;99454.53;5183592;28;20050;-72
2022/07/05 13:07:07;;;;;;;4.50;0.90;;;;;;;29.40;30.15;99458.41;5184367;28;20363;-72
2022/07/05 13:10:28;;;;;;;2.53;0.80;;;;;;;29.17;32.05;99443.16;5183506;28;20065;-72
2022/07/05 13:13:20;;;;;;;1.15;0.93;;;;;;;27.36;31.43;99455.16;5183529;28;20188;-72
2022/07/05 13:16:10;;;;;;;1.65;0.70;;;;;;;27.13;31.17;99451.44;5182915;28;20147;-71
2022/07/05 13:19:11;;;;;;;2.58;0.93;;;;;;;28.23;31.38;99454.00;5182477;28;20132;-72
2022/07/05 13:22:02;;;;;;;2.75;0.82;;;;;;;28.33;31.35;99455.00;5181756;28;20073;-72
2022/07/05 13:24:54;;;;;;;1.02;0.80;;;;;;;27.78;31.72;99452.16;5183156;28;20143;-72
2022/07/05 13:27:44;;;;;;;1.70;1.13;;;;;;;27.75;30.24;99431.66;5181875;28;20112;-72
2022/07/05 13:30:34;;;;;;;2.65;1.00;;;;;;;27.74;31.60;99435.44;5181506;28;20076;-72
2022/07/05 13:33:24;;;;;;;2.30;1.00;;;;;;;28.64;30.95;99449.19;5182701;28;20054;-72
2022/07/05 13:36:19;;;;;;;4.53;1.35;;;;;;;28.50;30.46;99448.72;5183047;28;20061;-72
2022/07/05 13:39:09;;;;;;;2.65;0.82;;;;;;;28.00;30.32;99422.28;5182932;28;20100;-72
2022/07/05 13:41:59;;;;;;;1.25;0.80;;;;;;;28.30;30.29;99439.13;5182185;28;20486;-72
2022/07/05 13:44:50;;;;;;;1.15;0.75;;;;;;;28.45;29.33;99441.31;5183116;28;20058;-72